createdAt,value
2022-10-18T00:21:25.072Z,8.98
2022-10-18T00:26:30.617Z,8.83
2022-10-18T00:31:37.191Z,8.58
2022-10-18T00:36:40.834Z,8.31
2022-10-18T00:41:46.205Z,9.03
2022-10-18T00:46:50.394Z,9.11
2022-10-18T00:51:59.189Z,8.73
2022-10-18T00:57:03.457Z,8.24
2022-10-18T01:02:08.165Z,8.60
2022-10-18T01:07:38.157Z,8.17
2022-10-18T01:12:50.656Z,8.43
2022-10-18T01:18:12.634Z,8.23
2022-10-18T01:23:41.338Z,8.58
2022-10-18T01:29:01.673Z,8.52
2022-10-18T01:34:10.329Z,8.17
2022-10-18T01:39:22.384Z,8.49
2022-10-18T01:44:30.447Z,8.31
2022-10-18T01:49:35.265Z,8.69
2022-10-18T01:54:42.508Z,8.77
2022-10-18T01:59:49.188Z,8.64
2022-10-18T02:05:19.159Z,7.65
2022-10-18T02:10:33.153Z,8.80
2022-10-18T02:15:40.939Z,8.59
2022-10-18T02:20:46.646Z,8.01
2022-10-18T02:25:53.792Z,8.61
2022-10-18T02:31:31.089Z,8.26
2022-10-18T02:36:41.513Z,8.55
2022-10-18T02:41:45.539Z,8.19
2022-10-18T02:46:49.608Z,8.21
2022-10-18T02:51:53.610Z,7.76
2022-10-18T02:56:57.329Z,8.04
2022-10-18T03:02:10.878Z,8.11
2022-10-18T03:07:14.492Z,7.28
2022-10-18T03:12:18.396Z,7.61
2022-10-18T03:17:22.048Z,8.71
2022-10-18T03:22:26.331Z,7.32
2022-10-18T03:27:30.539Z,7.64
2022-10-18T03:32:34.767Z,6.91
2022-10-18T03:37:39.171Z,8.16
2022-10-18T03:42:42.798Z,8.56
2022-10-18T03:47:46.842Z,7.82
2022-10-18T03:52:50.913Z,8.46
2022-10-18T03:57:54.483Z,8.74
2022-10-18T04:02:58.141Z,8.13
2022-10-18T04:08:01.961Z,8.08
2022-10-18T04:13:09.319Z,9.22
2022-10-18T04:18:12.885Z,9.42
2022-10-18T04:23:16.552Z,9.68
2022-10-18T04:28:21.580Z,9.35
2022-10-18T04:33:25.186Z,10.01
2022-10-18T04:38:29.068Z,8.65
2022-10-18T04:43:33.183Z,9.80
2022-10-18T04:48:36.886Z,9.32
2022-10-18T04:53:40.378Z,8.93
2022-10-18T04:58:44.073Z,9.09
2022-10-18T05:03:47.491Z,9.26
2022-10-18T05:08:50.945Z,8.82
2022-10-18T05:13:55.215Z,8.44
2022-10-18T05:18:58.738Z,8.85
2022-10-18T05:24:02.212Z,8.63
2022-10-18T05:29:05.801Z,9.45
2022-10-18T05:34:09.479Z,8.85
2022-10-18T05:39:12.996Z,8.86
2022-10-18T05:44:16.403Z,9.08
2022-10-18T05:49:20.015Z,8.47
2022-10-18T05:54:23.509Z,7.85
2022-10-18T05:59:27.062Z,8.90
2022-10-18T06:04:30.470Z,9.24
2022-10-18T06:09:34.017Z,9.43
2022-10-18T06:14:38.359Z,8.67
2022-10-18T06:19:45.153Z,9.99
2022-10-18T06:24:48.590Z,9.88
2022-10-18T06:29:52.022Z,9.36
2022-10-18T06:34:55.492Z,10.18
2022-10-18T06:39:59.022Z,9.58
2022-10-18T06:45:02.564Z,9.80
2022-10-18T06:50:07.540Z,10.68
2022-10-18T06:55:11.221Z,10.78
2022-10-18T07:00:15.520Z,11.10
2022-10-18T07:05:19.412Z,11.28
2022-10-18T07:10:23.682Z,11.70
2022-10-18T07:15:27.385Z,11.43
2022-10-18T07:20:31.098Z,11.97
2022-10-18T07:25:35.486Z,11.86
2022-10-18T07:30:39.117Z,12.29
2022-10-18T07:35:42.630Z,12.70
2022-10-18T07:40:46.095Z,12.62
2022-10-18T07:45:57.767Z,13.84
2022-10-18T07:51:02.114Z,13.97
2022-10-18T07:56:09.690Z,14.34
2022-10-18T08:01:14.951Z,14.64
2022-10-18T08:06:19.924Z,14.91
2022-10-18T08:11:25.621Z,14.57
2022-10-18T08:21:34.194Z,15.21
2022-10-18T08:26:37.802Z,15.61
2022-10-18T08:31:41.424Z,16.14
2022-10-18T08:36:45.017Z,14.96
2022-10-18T08:42:19.466Z,16.55
2022-10-18T08:47:31.987Z,16.69
2022-10-18T08:52:45.681Z,18.01
2022-10-18T08:57:54.433Z,18.90
2022-10-18T09:03:22.987Z,19.94
2022-10-18T09:08:52.898Z,20.05
2022-10-18T10:07:36.850Z,22.14
2022-10-18T10:12:42.167Z,22.14
2022-10-18T10:17:57.033Z,21.02
2022-10-18T10:23:46.627Z,21.24
2022-10-18T10:28:50.868Z,21.95
2022-10-18T10:34:07.668Z,21.81
2022-10-18T10:39:19.630Z,22.20
2022-10-18T10:44:26.181Z,21.73
2022-10-18T10:49:48.750Z,21.33
2022-10-18T10:54:53.877Z,20.99
2022-10-18T11:00:00.913Z,21.83
2022-10-18T11:05:24.760Z,21.95
2022-10-18T11:10:35.065Z,21.15
2022-10-18T11:15:47.050Z,21.17
2022-10-18T11:21:08.873Z,21.58
2022-10-18T11:26:31.770Z,20.77
2022-10-18T11:32:00.389Z,21.97
2022-10-18T11:37:41.800Z,21.90
2022-10-18T11:42:51.557Z,21.51
2022-10-18T11:48:31.992Z,21.78
2022-10-18T11:53:54.211Z,21.91
2022-10-18T11:58:57.588Z,21.99
2022-10-18T12:04:14.336Z,21.87
2022-10-18T12:09:30.310Z,21.72
2022-10-18T12:14:51.988Z,20.50
2022-10-18T12:19:58.242Z,21.36
2022-10-18T12:25:02.841Z,21.76
2022-10-18T12:30:46.482Z,22.36
2022-10-18T12:36:14.494Z,21.30
2022-10-18T12:41:22.702Z,21.29
2022-10-18T12:46:43.634Z,22.00
2022-10-18T12:51:53.727Z,21.99
2022-10-18T12:56:58.323Z,20.84
2022-10-18T13:02:01.740Z,22.10
2022-10-18T13:07:11.672Z,21.25
2022-10-18T13:12:15.177Z,21.55
2022-10-18T13:17:34.940Z,21.48
2022-10-18T13:22:50.738Z,21.20
2022-10-18T13:28:17.322Z,21.29
2022-10-18T13:33:42.707Z,21.28
2022-10-18T13:38:56.453Z,21.30
2022-10-18T13:44:14.913Z,20.06
2022-10-18T13:49:27.798Z,21.29
2022-10-18T13:54:51.728Z,21.20
2022-10-18T14:00:28.101Z,19.81
2022-10-18T14:06:09.815Z,21.00
2022-10-18T14:11:31.525Z,21.00
2022-10-18T14:16:47.852Z,21.02
2022-10-18T14:22:26.048Z,20.86
2022-10-18T14:27:33.462Z,20.82
2022-10-18T14:32:37.848Z,21.17
2022-10-18T14:37:41.222Z,21.28
2022-10-18T14:42:49.458Z,20.61
2022-10-18T14:47:53.056Z,19.94
2022-10-18T14:52:57.303Z,20.98
2022-10-18T14:58:01.150Z,20.03
2022-10-18T15:03:06.763Z,20.89
2022-10-18T15:08:11.087Z,20.67
2022-10-18T15:13:16.051Z,19.49
2022-10-18T15:18:28.859Z,20.66
2022-10-18T15:23:32.310Z,20.51
2022-10-18T15:28:41.458Z,19.71
2022-10-18T15:33:45.086Z,19.99
2022-10-18T15:38:50.037Z,19.60
2022-10-18T15:44:27.218Z,19.79
2022-10-18T15:49:56.290Z,19.26
2022-10-18T15:55:00.610Z,19.09
2022-10-18T16:00:07.872Z,19.12
2022-10-18T16:10:16.228Z,16.80
2022-10-18T16:15:21.185Z,16.17
2022-10-18T16:20:26.057Z,16.55
2022-10-18T16:25:29.594Z,16.25
2022-10-18T16:30:35.374Z,15.37
2022-10-18T16:35:39.263Z,15.13
2022-10-18T16:40:42.796Z,14.42
2022-10-18T16:46:36.405Z,14.94
2022-10-18T16:51:40.395Z,14.59
2022-10-18T16:56:44.600Z,14.91
2022-10-18T17:01:48.205Z,14.83
2022-10-18T17:13:45.688Z,14.36
2022-10-18T17:18:49.372Z,13.64
2022-10-18T17:23:53.072Z,13.64
2022-10-18T17:29:03.977Z,14.08
2022-10-18T17:34:34.514Z,13.21
2022-10-18T17:39:39.308Z,13.01
2022-10-18T17:44:44.415Z,12.80
2022-10-18T17:49:48.851Z,12.89
2022-10-18T17:54:52.490Z,12.88
2022-10-18T17:59:57.112Z,12.88
2022-10-18T18:05:01.142Z,12.99
2022-10-18T18:10:05.457Z,12.49
2022-10-18T18:15:10.324Z,12.16
2022-10-18T18:20:19.315Z,12.59
2022-10-18T18:25:26.049Z,13.11
2022-10-18T18:30:40.532Z,12.99
2022-10-18T18:35:45.514Z,12.20
2022-10-18T18:40:49.077Z,12.40
2022-10-18T18:45:58.558Z,12.75
2022-10-18T18:51:09.828Z,12.44
2022-10-18T18:56:40.782Z,12.57
2022-10-18T19:01:44.837Z,12.66
2022-10-18T19:06:48.326Z,12.21
2022-10-18T19:11:53.908Z,12.49
2022-10-18T19:17:02.530Z,12.32
2022-10-18T19:35:54.263Z,11.63
2022-10-18T19:40:57.200Z,11.27
2022-10-18T19:46:04.183Z,11.53
2022-10-18T19:51:09.556Z,11.75
2022-10-18T19:56:33.067Z,11.42
2022-10-18T20:01:36.662Z,11.64
2022-10-18T20:06:43.911Z,11.86
2022-10-18T20:11:47.274Z,10.96
2022-10-18T20:16:49.996Z,10.01
2022-10-18T20:28:46.529Z,11.30
2022-10-18T20:33:55.624Z,11.36
2022-10-18T20:39:23.756Z,11.30
2022-10-18T20:44:27.966Z,10.69
2022-10-18T20:49:30.940Z,10.22
2022-10-18T20:54:33.684Z,11.09
2022-10-18T20:59:37.608Z,11.59
2022-10-18T21:04:42.294Z,10.31
2022-10-18T21:09:45.312Z,11.60
2022-10-18T21:14:48.307Z,11.53
2022-10-18T21:19:51.255Z,10.75
2022-10-18T21:24:54.037Z,10.55
2022-10-18T21:29:57.457Z,11.40
2022-10-18T21:35:01.137Z,11.06
2022-10-18T21:46:58.083Z,11.55
2022-10-18T21:52:04.393Z,11.88
2022-10-18T21:57:07.379Z,11.36
2022-10-18T22:02:10.122Z,11.27
2022-10-18T22:07:12.999Z,10.78
2022-10-18T22:12:15.748Z,11.65
2022-10-18T22:17:19.096Z,11.01
2022-10-18T22:22:21.807Z,10.90
2022-10-18T22:27:24.908Z,11.24
2022-10-18T22:32:27.637Z,9.94
2022-10-18T22:37:30.662Z,10.21
2022-10-18T22:49:34.892Z,10.70
2022-10-18T22:54:37.721Z,10.60
2022-10-18T22:59:40.471Z,10.37
2022-10-18T23:04:43.310Z,10.64
2022-10-18T23:09:46.036Z,10.40
2022-10-18T23:14:48.955Z,9.57
2022-10-18T23:19:51.891Z,10.01
2022-10-18T23:24:54.908Z,9.22
2022-10-18T23:29:57.840Z,10.51
2022-10-18T23:35:00.793Z,9.84
2022-10-18T23:40:03.637Z,10.48
2022-10-18T23:52:00.011Z,9.60
2022-10-18T23:57:02.951Z,10.11
